Barnham, United Kingdom
Current Conditions -  °F | °C
As of 3:20 PM on Thursday 30 Oct 2014 (Local Time) from EGKA Reporting Station
Few Clouds Few Clouds  
Wind Chill: 63°   Ceiling: Unl
Heat Index: 63°   Visibility: 6mi
Dew Point: 57°   Wind: 7mph
Humidity: 82%   Direction: 170°S
Pressure: 30.06"   Gusts: NA
Location:  50.83°N, 0.64°W
Report Text: EGKA 301520Z 17006KT 9000 FEW013 17/14 Q1018
Loading
Personal Weather Stations






























Interactive Weather Map
Tropical Storm Tracking
New forecast layout! Learn more

10-Day Weather Forecast

Advertisements
Track Severe Weather on mobile